createdAt,value
2018-07-28T00:01:44.337Z,89.00
2018-07-28T00:04:12.532Z,89.30
2018-07-28T00:09:10.339Z,89.60
2018-07-28T00:11:38.766Z,89.20
2018-07-28T00:14:07.414Z,90.00
2018-07-28T00:16:35.603Z,89.50
2018-07-28T00:19:03.851Z,89.70
2018-07-28T00:21:32.045Z,89.80
2018-07-28T00:24:00.280Z,89.60
2018-07-28T00:26:28.459Z,89.50
2018-07-28T00:28:56.656Z,89.50
2018-07-28T00:31:24.844Z,89.50
2018-07-28T00:33:53.066Z,89.70
2018-07-28T00:36:21.288Z,90.00
2018-07-28T00:38:49.507Z,89.90
2018-07-28T00:41:17.681Z,90.00
2018-07-28T00:43:45.895Z,90.00
2018-07-28T00:46:14.079Z,90.10
2018-07-28T00:48:42.259Z,90.30
2018-07-28T00:51:10.460Z,90.40
2018-07-28T00:53:38.635Z,90.50
2018-07-28T00:56:06.832Z,90.60
2018-07-28T00:58:35.683Z,90.70
2018-07-28T01:01:03.963Z,90.70
2018-07-28T01:03:32.147Z,90.60
2018-07-28T01:06:00.323Z,90.60
2018-07-28T01:08:28.520Z,90.70
2018-07-28T01:10:56.703Z,90.90
2018-07-28T01:13:24.903Z,91.00
2018-07-28T01:15:53.103Z,91.00
2018-07-28T01:18:21.316Z,91.00
2018-07-28T01:20:49.506Z,90.90
2018-07-28T01:25:45.690Z,91.00
2018-07-28T01:28:13.895Z,91.00
2018-07-28T01:30:42.075Z,91.10
2018-07-28T01:33:10.285Z,91.10
2018-07-28T01:35:38.463Z,91.10
2018-07-28T01:38:06.664Z,91.10
2018-07-28T01:40:34.886Z,91.10
2018-07-28T01:43:04.155Z,91.10
2018-07-28T01:45:32.327Z,91.20
2018-07-28T01:48:00.523Z,91.30
2018-07-28T01:50:28.746Z,91.30
2018-07-28T01:52:56.961Z,91.40
2018-07-28T01:55:25.141Z,91.50
2018-07-28T01:57:53.351Z,91.60
2018-07-28T02:00:21.525Z,91.70
2018-07-28T02:02:49.720Z,91.70
2018-07-28T02:05:17.915Z,91.70
2018-07-28T02:07:46.103Z,91.70
2018-07-28T02:10:14.310Z,91.80
2018-07-28T02:12:42.500Z,91.90
2018-07-28T02:15:10.679Z,92.00
2018-07-28T02:17:38.880Z,92.40
2018-07-28T02:20:07.807Z,92.10
2018-07-28T02:25:06.307Z,92.20
2018-07-28T02:27:34.496Z,92.20
2018-07-28T02:30:02.784Z,92.30
2018-07-28T02:32:30.975Z,92.30
2018-07-28T02:34:59.188Z,92.40
2018-07-28T02:37:27.412Z,92.50
2018-07-28T02:39:55.611Z,92.50
2018-07-28T02:42:23.873Z,92.50
2018-07-28T02:44:52.051Z,92.60
2018-07-28T02:47:20.226Z,92.60
2018-07-28T02:52:16.374Z,92.90
2018-07-28T02:54:44.575Z,92.90
2018-07-28T02:57:12.775Z,93.00
2018-07-28T02:59:40.995Z,93.10
2018-07-28T03:02:09.208Z,93.20
2018-07-28T03:04:37.405Z,93.30
2018-07-28T03:07:06.307Z,93.20
2018-07-28T03:09:34.495Z,93.30
2018-07-28T03:12:02.742Z,93.30
2018-07-28T03:14:30.954Z,93.30
2018-07-28T03:16:59.131Z,93.40
2018-07-28T03:19:27.339Z,93.40
2018-07-28T03:21:55.523Z,93.40
2018-07-28T03:24:23.748Z,93.50
2018-07-28T03:26:51.929Z,93.50
2018-07-28T03:29:20.131Z,93.50
2018-07-28T03:31:48.329Z,93.60
2018-07-28T03:34:17.577Z,93.70
2018-07-28T03:36:45.755Z,93.70
2018-07-28T03:39:13.959Z,93.90
2018-07-28T03:41:42.204Z,93.90
2018-07-28T03:44:10.531Z,94.00
2018-07-28T03:46:38.735Z,94.10
2018-07-28T03:51:34.932Z,94.30
2018-07-28T03:54:03.171Z,94.30
2018-07-28T03:56:31.397Z,94.30
2018-07-28T03:58:59.583Z,94.40
2018-07-28T04:01:28.171Z,94.70
2018-07-28T04:03:56.347Z,94.40
2018-07-28T04:06:24.543Z,94.50
2018-07-28T04:08:52.819Z,94.50
2018-07-28T04:11:20.997Z,94.50
2018-07-28T04:13:49.200Z,94.40
2018-07-28T04:16:17.396Z,94.30
2018-07-28T04:21:13.579Z,94.30
2018-07-28T04:23:41.775Z,94.30
2018-07-28T04:26:09.971Z,94.30
2018-07-28T04:28:38.319Z,94.20
2018-07-28T04:31:06.398Z,94.10
2018-07-28T04:33:34.623Z,94.00
2018-07-28T04:36:02.810Z,94.30
2018-07-28T04:38:31.037Z,93.90
2018-07-28T04:40:59.207Z,93.80
2018-07-28T04:43:28.428Z,93.70
2018-07-28T04:45:56.616Z,93.60
2018-07-28T04:48:24.889Z,93.50
2018-07-28T04:50:53.084Z,93.30
2018-07-28T04:53:21.279Z,92.90
2018-07-28T04:55:49.499Z,92.60
2018-07-28T04:58:17.687Z,92.20
2018-07-28T05:00:45.904Z,91.80
2018-07-28T05:03:14.106Z,91.60
2018-07-28T05:05:42.299Z,91.20
2018-07-28T05:08:10.507Z,91.30
2018-07-28T05:10:38.704Z,90.60
2018-07-28T05:13:06.963Z,90.30
2018-07-28T05:15:35.135Z,90.00
2018-07-28T05:18:03.344Z,89.50
2018-07-28T05:20:31.563Z,89.00
2018-07-28T05:22:59.787Z,88.50
2018-07-28T05:25:27.967Z,87.90
2018-07-28T05:27:56.155Z,87.20
2018-07-28T05:30:24.332Z,86.90
2018-07-28T05:32:52.539Z,87.00
2018-07-28T05:35:20.715Z,86.80
2018-07-28T05:37:49.033Z,87.00
2018-07-28T05:40:17.191Z,86.80
2018-07-28T05:42:45.395Z,86.90
2018-07-28T05:45:13.655Z,87.00
2018-07-28T05:47:41.852Z,86.70
2018-07-28T05:50:10.098Z,86.50
2018-07-28T05:52:38.268Z,86.50
2018-07-28T05:55:06.478Z,86.30
2018-07-28T05:57:34.659Z,86.20
2018-07-28T06:00:02.904Z,86.10
2018-07-28T06:02:31.184Z,86.30
2018-07-28T06:04:59.324Z,86.10
2018-07-28T06:07:27.525Z,85.90
2018-07-28T06:09:55.735Z,85.60
2018-07-28T06:12:23.927Z,85.30
2018-07-28T06:14:52.252Z,84.30
2018-07-28T06:17:20.477Z,83.70
2018-07-28T06:19:48.689Z,83.20
2018-07-28T06:22:17.084Z,82.90
2018-07-28T06:24:45.301Z,82.20
2018-07-28T06:27:13.512Z,81.90
2018-07-28T06:29:41.772Z,81.50
2018-07-28T06:32:10.292Z,80.80
2018-07-28T06:34:39.004Z,80.30
2018-07-28T06:37:07.212Z,79.60
2018-07-28T06:39:35.441Z,79.10
2018-07-28T06:42:03.728Z,78.20
2018-07-28T06:44:32.532Z,77.10
2018-07-28T06:47:00.733Z,76.20
2018-07-28T06:49:28.935Z,75.10
2018-07-28T06:51:57.150Z,74.20
2018-07-28T06:54:25.351Z,72.60
2018-07-28T06:56:54.168Z,71.30
2018-07-28T06:59:22.376Z,68.50
2018-07-28T07:01:50.572Z,67.50
2018-07-28T07:04:18.829Z,66.20
2018-07-28T07:06:47.004Z,65.10
2018-07-28T07:09:15.227Z,63.70
2018-07-28T07:11:43.481Z,62.70
2018-07-28T07:14:11.640Z,61.80
2018-07-28T07:16:39.892Z,61.00
2018-07-28T07:19:08.083Z,60.60
2018-07-28T07:21:36.409Z,60.20
2018-07-28T07:24:04.626Z,59.80
2018-07-28T07:26:32.820Z,59.30
2018-07-28T07:29:01.016Z,59.00
2018-07-28T07:31:29.216Z,58.70
2018-07-28T07:33:57.399Z,58.70
2018-07-28T07:36:25.624Z,58.40
2018-07-28T07:38:53.812Z,58.00
2018-07-28T07:41:22.127Z,58.00
2018-07-28T07:43:50.315Z,57.70
2018-07-28T07:46:18.496Z,57.30
2018-07-28T07:48:46.794Z,57.10
2018-07-28T07:51:15.024Z,57.10
2018-07-28T07:53:43.251Z,57.00
2018-07-28T07:56:11.451Z,56.60
2018-07-28T07:58:39.632Z,56.70
2018-07-28T08:01:07.834Z,57.20
2018-07-28T08:03:36.012Z,57.50
2018-07-28T08:06:04.231Z,57.50
2018-07-28T08:08:32.410Z,57.60
2018-07-28T08:11:00.641Z,57.70
2018-07-28T08:13:28.820Z,58.10
2018-07-28T08:15:57.018Z,58.70
2018-07-28T08:18:25.195Z,60.90
2018-07-28T08:23:21.487Z,66.00
2018-07-28T08:25:49.755Z,69.20
2018-07-28T08:28:17.975Z,70.50
2018-07-28T08:30:46.377Z,71.80
2018-07-28T08:33:14.709Z,71.70
2018-07-28T08:35:42.880Z,72.20
2018-07-28T08:38:11.058Z,72.50
2018-07-28T08:40:39.330Z,72.50
2018-07-28T08:43:07.535Z,72.30
2018-07-28T08:45:35.765Z,71.90
2018-07-28T08:48:03.968Z,72.00
2018-07-28T08:50:32.172Z,72.40
2018-07-28T08:53:00.395Z,72.80
2018-07-28T08:55:28.588Z,72.60
2018-07-28T08:57:56.815Z,72.50
2018-07-28T09:00:25.040Z,71.70
2018-07-28T09:02:53.236Z,71.60
2018-07-28T09:05:21.460Z,70.30
2018-07-28T09:07:49.668Z,68.70
2018-07-28T09:10:17.847Z,68.10
2018-07-28T09:12:46.128Z,66.90
2018-07-28T09:15:14.351Z,65.90
2018-07-28T09:17:42.543Z,64.40
2018-07-28T09:20:10.752Z,61.90
2018-07-28T09:22:39.032Z,61.50
2018-07-28T09:25:07.775Z,61.30
2018-07-28T09:27:35.956Z,61.20
2018-07-28T09:30:05.016Z,59.50
2018-07-28T09:32:33.219Z,58.30
2018-07-28T09:35:01.429Z,58.20
2018-07-28T09:37:29.642Z,58.30
2018-07-28T09:39:57.851Z,57.50
2018-07-28T09:42:26.075Z,56.20
2018-07-28T09:44:54.278Z,54.60
2018-07-28T09:47:22.534Z,54.50
2018-07-28T09:49:50.744Z,54.60
2018-07-28T09:52:18.933Z,55.30
2018-07-28T09:54:47.139Z,55.50
2018-07-28T09:57:15.331Z,55.50
2018-07-28T09:59:43.577Z,55.10
2018-07-28T10:02:11.756Z,54.70
2018-07-28T10:04:39.957Z,54.70
2018-07-28T10:07:08.135Z,55.10
2018-07-28T10:09:36.362Z,55.40
2018-07-28T10:12:04.547Z,54.70
2018-07-28T10:14:32.747Z,54.40
2018-07-28T10:17:00.933Z,54.00
2018-07-28T10:19:29.143Z,53.60
2018-07-28T10:21:57.352Z,53.20
2018-07-28T10:24:25.552Z,52.80
2018-07-28T10:26:53.772Z,52.90
2018-07-28T10:29:21.965Z,52.70
2018-07-28T10:31:50.185Z,51.90
2018-07-28T10:34:18.435Z,51.30
2018-07-28T10:36:46.644Z,51.10
2018-07-28T10:39:15.171Z,50.40
2018-07-28T10:41:43.547Z,49.90
2018-07-28T10:44:11.823Z,50.20
2018-07-28T10:46:40.015Z,50.10
2018-07-28T10:49:08.216Z,49.80
2018-07-28T10:51:36.422Z,49.50
2018-07-28T10:54:04.661Z,48.90
2018-07-28T10:56:32.847Z,48.50
2018-07-28T10:59:01.088Z,48.50
2018-07-28T11:01:29.327Z,47.50
2018-07-28T11:03:57.527Z,46.60
2018-07-28T11:06:25.732Z,46.40
2018-07-28T11:08:53.980Z,46.00
2018-07-28T11:11:22.163Z,45.60
2018-07-28T11:13:50.364Z,45.30
2018-07-28T11:16:18.620Z,45.20
2018-07-28T11:18:46.906Z,44.40
2018-07-28T11:21:15.036Z,43.80
2018-07-28T11:23:50.801Z,43.40
2018-07-28T11:26:19.604Z,43.40
2018-07-28T11:28:47.742Z,43.30
2018-07-28T11:31:27.503Z,42.70
2018-07-28T11:34:07.423Z,42.20
2018-07-28T11:36:46.987Z,42.00
2018-07-28T11:39:26.479Z,41.60
2018-07-28T11:42:06.528Z,41.30
2018-07-28T11:47:08.379Z,40.80
2018-07-28T11:49:36.599Z,41.10
2018-07-28T11:52:04.823Z,41.20
2018-07-28T11:54:33.020Z,40.90
2018-07-28T11:57:01.211Z,41.00
2018-07-28T11:59:30.056Z,41.20
2018-07-28T12:01:58.311Z,41.50
2018-07-28T12:04:26.603Z,41.40
2018-07-28T12:06:54.800Z,41.60
2018-07-28T12:09:23.003Z,41.20
2018-07-28T12:11:51.200Z,40.70
2018-07-28T12:16:47.375Z,39.80
2018-07-28T12:19:15.611Z,39.40
2018-07-28T12:22:46.667Z,39.40
2018-07-28T12:25:14.885Z,40.00
2018-07-28T12:27:43.087Z,40.30
2018-07-28T12:32:40.066Z,41.00
2018-07-28T12:35:08.664Z,41.20
2018-07-28T12:37:36.844Z,41.60
2018-07-28T12:40:05.226Z,42.20
2018-07-28T12:42:33.455Z,42.80
2018-07-28T12:45:01.641Z,43.50
2018-07-28T12:47:29.862Z,44.10
2018-07-28T12:49:58.115Z,44.80
2018-07-28T12:52:26.327Z,45.90
2018-07-28T12:54:58.351Z,48.20
2018-07-28T12:57:26.791Z,51.90
2018-07-28T12:59:54.979Z,55.80
2018-07-28T13:02:23.252Z,59.20
2018-07-28T13:07:19.394Z,65.30
2018-07-28T13:09:47.659Z,66.80
2018-07-28T13:12:15.783Z,68.10
2018-07-28T13:14:43.987Z,67.30
2018-07-28T13:17:12.312Z,67.90
2018-07-28T13:19:40.476Z,67.40
2018-07-28T13:22:08.703Z,65.60
2018-07-28T13:24:36.938Z,64.50
2018-07-28T13:27:05.200Z,62.60
2018-07-28T13:29:36.828Z,62.70
2018-07-28T13:32:05.014Z,63.60
2018-07-28T13:34:33.202Z,64.10
2018-07-28T13:37:01.411Z,62.20
2018-07-28T13:39:29.583Z,60.60
2018-07-28T13:41:57.771Z,59.40
2018-07-28T13:44:25.995Z,57.00
2018-07-28T13:46:54.183Z,55.40
2018-07-28T13:49:22.364Z,55.20
2018-07-28T13:51:50.599Z,54.60
2018-07-28T13:54:18.787Z,53.00
2018-07-28T13:56:47.015Z,51.40
2018-07-28T13:59:15.195Z,50.60
2018-07-28T14:01:43.396Z,50.60
2018-07-28T14:04:11.564Z,49.70
2018-07-28T14:06:39.779Z,49.60
2018-07-28T14:09:09.356Z,49.70
2018-07-28T14:11:37.636Z,50.80
2018-07-28T14:14:05.820Z,52.40
2018-07-28T14:16:34.019Z,53.30
2018-07-28T14:19:02.248Z,54.10
2018-07-28T14:23:58.371Z,50.30
2018-07-28T14:26:26.639Z,48.70
2018-07-28T14:28:54.811Z,47.80
2018-07-28T14:31:23.907Z,47.20
2018-07-28T14:33:52.247Z,47.10
2018-07-28T14:36:20.448Z,46.70
2018-07-28T14:38:48.654Z,46.20
2018-07-28T14:41:16.907Z,46.40
2018-07-28T14:43:45.404Z,46.70
2018-07-28T14:46:13.636Z,46.10
2018-07-28T14:48:41.847Z,46.20
2018-07-28T14:51:10.158Z,46.10
2018-07-28T14:53:38.378Z,45.90
2018-07-28T14:56:06.730Z,46.20
2018-07-28T14:58:34.939Z,46.60
2018-07-28T15:01:03.179Z,46.80
2018-07-28T15:03:31.961Z,47.30
2018-07-28T15:06:00.153Z,47.50
2018-07-28T15:08:28.355Z,47.80
2018-07-28T15:10:57.128Z,48.10
2018-07-28T15:13:25.368Z,48.20
2018-07-28T15:15:53.571Z,48.20
2018-07-28T15:18:21.814Z,49.00
2018-07-28T15:20:49.979Z,50.10
2018-07-28T15:23:18.199Z,50.70
2018-07-28T15:25:46.423Z,51.00
2018-07-28T15:28:14.620Z,50.90
2018-07-28T15:33:10.790Z,51.40
2018-07-28T15:35:39.008Z,51.60
2018-07-28T15:38:07.343Z,51.80
2018-07-28T15:40:35.567Z,51.90
2018-07-28T15:43:03.760Z,52.30
2018-07-28T15:45:31.963Z,52.50
2018-07-28T15:48:00.164Z,52.90
2018-07-28T15:50:28.349Z,53.30
2018-07-28T15:52:56.574Z,53.50
2018-07-28T15:55:24.779Z,53.70
2018-07-28T16:00:22.059Z,54.40
2018-07-28T16:02:50.555Z,54.60
2018-07-28T16:05:18.837Z,54.90
2018-07-28T16:07:47.419Z,55.30
2018-07-28T16:10:16.039Z,55.50
2018-07-28T16:12:44.229Z,55.70
2018-07-28T16:15:12.437Z,55.90
2018-07-28T16:17:40.635Z,56.20
2018-07-28T16:20:09.057Z,56.30
2018-07-28T16:22:37.190Z,56.50
2018-07-28T16:25:05.435Z,56.60
2018-07-28T16:27:33.613Z,56.60
2018-07-28T16:30:01.805Z,56.50
2018-07-28T16:32:30.024Z,56.50
2018-07-28T16:34:58.215Z,56.60
2018-07-28T16:37:26.427Z,57.00
2018-07-28T16:39:54.612Z,57.40
2018-07-28T16:42:22.819Z,56.90
2018-07-28T16:44:51.126Z,57.10
2018-07-28T16:47:19.197Z,57.30
2018-07-28T16:49:47.483Z,57.50
2018-07-28T16:52:15.709Z,57.50
2018-07-28T16:54:43.931Z,57.60
2018-07-28T16:57:12.143Z,57.30
2018-07-28T16:59:40.315Z,56.50
2018-07-28T17:02:08.616Z,56.00
2018-07-28T17:04:36.839Z,55.70
2018-07-28T17:07:05.081Z,55.60
2018-07-28T17:09:33.302Z,55.50
2018-07-28T17:12:01.523Z,55.40
2018-07-28T17:14:29.687Z,55.30
2018-07-28T17:16:57.875Z,55.40
2018-07-28T17:19:26.120Z,55.40
2018-07-28T17:21:54.292Z,55.50
2018-07-28T17:24:22.500Z,55.60
2018-07-28T17:26:50.695Z,55.70
2018-07-28T17:29:19.005Z,55.80
2018-07-28T17:31:47.200Z,56.00
2018-07-28T17:34:15.399Z,56.30
2018-07-28T17:36:43.620Z,56.20
2018-07-28T17:39:12.087Z,56.60
2018-07-28T17:41:40.864Z,56.80
2018-07-28T17:44:09.056Z,57.10
2018-07-28T17:46:37.266Z,57.20
2018-07-28T17:49:05.437Z,57.30
2018-07-28T17:51:33.663Z,57.50
2018-07-28T17:54:01.856Z,57.40
2018-07-28T17:56:30.060Z,56.80
2018-07-28T17:58:58.248Z,56.10
2018-07-28T18:01:26.460Z,55.80
2018-07-28T18:03:54.683Z,55.60
2018-07-28T18:06:22.885Z,55.80
2018-07-28T18:08:51.087Z,56.00
2018-07-28T18:11:19.303Z,56.20
2018-07-28T18:13:47.510Z,56.50
2018-07-28T18:16:15.680Z,56.70
2018-07-28T18:18:43.872Z,56.70
2018-07-28T18:21:12.108Z,56.60
2018-07-28T18:23:40.432Z,56.80
2018-07-28T18:26:08.663Z,57.00
2018-07-28T18:28:36.876Z,57.20
2018-07-28T18:31:05.124Z,57.40
2018-07-28T18:33:33.667Z,57.70
2018-07-28T18:36:01.837Z,57.90
2018-07-28T18:38:30.043Z,58.10
2018-07-28T18:40:58.297Z,58.30
2018-07-28T18:43:26.656Z,58.70
2018-07-28T18:45:54.898Z,58.90
2018-07-28T18:48:23.231Z,59.30
2018-07-28T18:50:51.506Z,59.50
2018-07-28T18:53:20.205Z,59.90
2018-07-28T18:55:48.396Z,60.40
2018-07-28T18:58:16.638Z,60.60
2018-07-28T19:03:12.819Z,61.40
2018-07-28T19:05:41.003Z,62.00
2018-07-28T19:08:10.036Z,62.50
2018-07-28T19:10:38.224Z,63.20
2018-07-28T19:13:11.828Z,64.20
2018-07-28T19:15:40.055Z,65.10
2018-07-28T19:18:13.720Z,65.70
2018-07-28T19:20:41.935Z,65.70
2018-07-28T19:23:15.712Z,66.60
2018-07-28T19:25:43.891Z,66.80
2018-07-28T19:28:17.592Z,67.10
2018-07-28T19:30:45.778Z,67.50
2018-07-28T19:33:13.983Z,68.60
2018-07-28T19:35:47.698Z,69.60
2018-07-28T19:38:15.874Z,70.10
2018-07-28T19:40:44.087Z,70.90
2018-07-28T19:43:12.308Z,71.60
2018-07-28T19:45:40.651Z,72.30
2018-07-28T19:48:08.843Z,73.00
2018-07-28T19:50:37.056Z,73.70
2018-07-28T19:53:05.875Z,74.10
2018-07-28T19:55:34.059Z,74.80
2018-07-28T19:58:02.231Z,75.10
2018-07-28T20:00:30.443Z,75.50
2018-07-28T20:02:58.683Z,75.80
2018-07-28T20:05:26.946Z,76.60
2018-07-28T20:07:55.307Z,77.40
2018-07-28T20:10:23.535Z,78.10
2018-07-28T20:12:51.745Z,78.50
2018-07-28T20:15:19.904Z,79.00
2018-07-28T20:17:48.119Z,79.40
2018-07-28T20:20:16.332Z,79.90
2018-07-28T20:22:44.504Z,80.50
2018-07-28T20:25:12.761Z,81.00
2018-07-28T20:27:40.943Z,81.40
2018-07-28T20:30:09.291Z,81.80
2018-07-28T20:32:37.559Z,82.10
2018-07-28T20:35:05.763Z,82.40
2018-07-28T20:37:33.980Z,82.90
2018-07-28T20:40:02.194Z,83.20
2018-07-28T20:42:30.399Z,83.50
2018-07-28T20:44:59.351Z,84.00
2018-07-28T20:49:55.500Z,85.00
2018-07-28T20:52:23.699Z,85.40
2018-07-28T20:54:51.919Z,85.60
2018-07-28T20:57:20.114Z,86.20
2018-07-28T20:59:48.327Z,85.50
2018-07-28T21:02:16.523Z,85.40
2018-07-28T21:04:44.730Z,85.20
2018-07-28T21:07:12.935Z,85.20
2018-07-28T21:09:41.143Z,85.20
2018-07-28T21:12:09.355Z,84.80
2018-07-28T21:14:37.609Z,84.50
2018-07-28T21:17:06.089Z,84.10
2018-07-28T21:19:34.301Z,83.70
2018-07-28T21:22:02.487Z,83.40
2018-07-28T21:24:30.667Z,83.60
2018-07-28T21:26:58.888Z,83.40
2018-07-28T21:29:27.074Z,83.40
2018-07-28T21:31:55.277Z,83.30
2018-07-28T21:34:23.472Z,83.10
2018-07-28T21:36:51.692Z,83.00
2018-07-28T21:39:19.903Z,82.60
2018-07-28T21:41:48.096Z,82.50
2018-07-28T21:44:16.300Z,82.10
2018-07-28T21:46:44.508Z,81.80
2018-07-28T21:49:12.747Z,81.50
2018-07-28T21:51:40.937Z,81.50
2018-07-28T21:54:09.128Z,81.80
2018-07-28T21:56:37.348Z,81.80
2018-07-28T21:59:05.568Z,82.20
2018-07-28T22:01:33.794Z,82.50
2018-07-28T22:04:03.037Z,83.10
2018-07-28T22:06:32.455Z,83.50
2018-07-28T22:11:28.613Z,84.30
2018-07-28T22:13:56.912Z,84.50
2018-07-28T22:16:25.099Z,84.70
2018-07-28T22:18:53.643Z,85.10
2018-07-28T22:21:21.842Z,85.20
2018-07-28T22:23:50.078Z,85.50
2018-07-28T22:26:18.243Z,85.70
2018-07-28T22:28:46.449Z,85.80
2018-07-28T22:31:14.628Z,85.80
2018-07-28T22:33:42.803Z,85.90
2018-07-28T22:36:11.340Z,86.10
2018-07-28T22:38:39.554Z,86.20
2018-07-28T22:41:07.731Z,86.40
2018-07-28T22:43:35.935Z,86.50
2018-07-28T22:46:04.164Z,86.60
2018-07-28T22:48:32.747Z,86.60
2018-07-28T22:51:01.151Z,86.60
2018-07-28T22:53:29.331Z,86.30
2018-07-28T22:55:57.658Z,86.20
2018-07-28T22:58:25.862Z,85.40
2018-07-28T23:00:54.043Z,84.90
2018-07-28T23:03:22.235Z,84.70
2018-07-28T23:05:50.423Z,84.80
2018-07-28T23:08:18.655Z,84.80
2018-07-28T23:10:46.831Z,85.00
2018-07-28T23:13:15.049Z,85.30
2018-07-28T23:15:43.224Z,85.30
2018-07-28T23:18:11.445Z,85.80
2018-07-28T23:20:39.624Z,86.00
2018-07-28T23:23:07.798Z,86.30
2018-07-28T23:25:35.995Z,86.40
2018-07-28T23:28:04.195Z,86.40
2018-07-28T23:30:32.487Z,86.90
2018-07-28T23:33:01.692Z,87.40
2018-07-28T23:35:29.915Z,87.70
2018-07-28T23:37:58.208Z,88.10
2018-07-28T23:40:26.434Z,88.40
2018-07-28T23:42:54.611Z,88.80
2018-07-28T23:45:22.963Z,89.00
2018-07-28T23:47:51.155Z,89.20
2018-07-28T23:50:19.368Z,89.50
2018-07-28T23:52:47.560Z,89.70
2018-07-28T23:55:15.753Z,89.90
2018-07-28T23:57:43.975Z,90.00
